METAR Data
IDs: Format: Raw Decoded Include TAF

Data at: 0332 UTC 06 Dec 2019

METAR for:KTNU (Newton Muni, IA, US)
Text:KTNU 060315Z AUTO 35011KT 10SM CLR 04/02 A2998 RMK A01
Temperature: 4.0°C ( 39°F)
Dewpoint: 2.0°C ( 36°F) [RH = 87%]
Pressure (altimeter):29.98 inches Hg (1015.3 mb)
Winds:from the N (350 degrees) at 13 MPH (11 knots; 5.7 m/s)
Visibility:10 or more sm (16+ km)
Ceiling:at least 12,000 feet AGL
Clouds:sky clear below 12,000 feet AGL
QC Flag:automated observation with no human augmentation